sensor_id;sensor_type;location;lat;lon;timestamp;pressure;altitude;pressure_sealevel;temperature
64458;BMP280;58438;51.200;7.252;2023-01-24T00:02:02;99620.31;;;0.91
64458;BMP280;58438;51.200;7.252;2023-01-24T00:04:49;99636.25;;;0.80
64458;BMP280;58438;51.200;7.252;2023-01-24T00:07:37;99639.69;;;0.81
64458;BMP280;58438;51.200;7.252;2023-01-24T00:10:24;99633.19;;;0.82
64458;BMP280;58438;51.200;7.252;2023-01-24T00:13:12;99637.53;;;0.90
64458;BMP280;58438;51.200;7.252;2023-01-24T00:16:04;99627.34;;;0.99
64458;BMP280;58438;51.200;7.252;2023-01-24T00:18:54;99631.78;;;0.88
64458;BMP280;58438;51.200;7.252;2023-01-24T00:21:41;99640.53;;;0.85
64458;BMP280;58438;51.200;7.252;2023-01-24T00:24:29;99639.66;;;1.00
64458;BMP280;58438;51.200;7.252;2023-01-24T00:27:19;99644.56;;;0.75
64458;BMP280;58438;51.200;7.252;2023-01-24T00:30:07;99636.28;;;0.84
64458;BMP280;58438;51.200;7.252;2023-01-24T00:32:55;99635.13;;;0.81
64458;BMP280;58438;51.200;7.252;2023-01-24T00:35:44;99637.72;;;0.78
64458;BMP280;58438;51.200;7.252;2023-01-24T00:38:32;99651.34;;;0.69
64458;BMP280;58438;51.200;7.252;2023-01-24T00:41:19;99649.88;;;0.72
64458;BMP280;58438;51.200;7.252;2023-01-24T00:44:07;99639.63;;;0.77
64458;BMP280;58438;51.200;7.252;2023-01-24T00:46:54;99644.56;;;0.75
64458;BMP280;58438;51.200;7.252;2023-01-24T00:49:42;99638.22;;;0.83
64458;BMP280;58438;51.200;7.252;2023-01-24T00:52:31;99647.94;;;0.91
64458;BMP280;58438;51.200;7.252;2023-01-24T00:55:18;99641.06;;;0.94
64458;BMP280;58438;51.200;7.252;2023-01-24T00:58:06;99641.19;;;1.01
64458;BMP280;58438;51.200;7.252;2023-01-24T01:00:55;99641.44;;;0.92
64458;BMP280;58438;51.200;7.252;2023-01-24T01:03:42;99638.34;;;0.90
64458;BMP280;58438;51.200;7.252;2023-01-24T01:06:31;99633.31;;;0.89
64458;BMP280;58438;51.200;7.252;2023-01-24T01:09:22;99642.50;;;0.88
64458;BMP280;58438;51.200;7.252;2023-01-24T01:12:12;99638.28;;;0.68
64458;BMP280;58438;51.200;7.252;2023-01-24T01:15:03;99625.97;;;0.63
64458;BMP280;58438;51.200;7.252;2023-01-24T01:17:54;99640.69;;;0.73
64458;BMP280;58438;51.200;7.252;2023-01-24T01:23:38;99640.91;;;0.64
64458;BMP280;58438;51.200;7.252;2023-01-24T01:26:30;99636.75;;;0.67
64458;BMP280;58438;51.200;7.252;2023-01-24T01:29:21;99632.19;;;0.67
64458;BMP280;58438;51.200;7.252;2023-01-24T01:32:14;99631.38;;;0.67
64458;BMP280;58438;51.200;7.252;2023-01-24T01:35:05;99649.09;;;0.71
64458;BMP280;58438;51.200;7.252;2023-01-24T01:37:56;99636.00;;;0.66
64458;BMP280;58438;51.200;7.252;2023-01-24T01:40:47;99648.19;;;0.64
64458;BMP280;58438;51.200;7.252;2023-01-24T01:43:39;99654.22;;;0.57
64458;BMP280;58438;51.200;7.252;2023-01-24T01:46:51;99660.53;;;0.68
64458;BMP280;58438;51.200;7.252;2023-01-24T01:49:47;99664.56;;;0.59
64458;BMP280;58438;51.200;7.252;2023-01-24T01:52:40;99661.47;;;0.57
64458;BMP280;58438;51.200;7.252;2023-01-24T01:58:22;99662.59;;;0.56
64458;BMP280;58438;51.200;7.252;2023-01-24T02:01:11;99669.34;;;0.69
64458;BMP280;58438;51.200;7.252;2023-01-24T02:04:03;99672.81;;;0.50
64458;BMP280;58438;51.200;7.252;2023-01-24T02:06:54;99682.81;;;0.53
64458;BMP280;58438;51.200;7.252;2023-01-24T02:09:45;99658.84;;;0.60
64458;BMP280;58438;51.200;7.252;2023-01-24T02:15:24;99638.88;;;0.58
64458;BMP280;58438;51.200;7.252;2023-01-24T02:18:37;99643.50;;;0.57
64458;BMP280;58438;51.200;7.252;2023-01-24T02:21:25;99648.50;;;0.40
64458;BMP280;58438;51.200;7.252;2023-01-24T02:24:17;99656.69;;;0.47
64458;BMP280;58438;51.200;7.252;2023-01-24T02:27:08;99643.34;;;0.50
64458;BMP280;58438;51.200;7.252;2023-01-24T02:29:55;99647.78;;;0.62
64458;BMP280;58438;51.200;7.252;2023-01-24T02:32:43;99646.16;;;0.57
64458;BMP280;58438;51.200;7.252;2023-01-24T02:35:31;99641.53;;;0.35
64458;BMP280;58438;51.200;7.252;2023-01-24T02:38:22;99641.09;;;0.52
64458;BMP280;58438;51.200;7.252;2023-01-24T02:41:10;99634.81;;;0.45
64458;BMP280;58438;51.200;7.252;2023-01-24T02:44:03;99634.81;;;0.45
64458;BMP280;58438;51.200;7.252;2023-01-24T02:46:51;99645.44;;;0.41
64458;BMP280;58438;51.200;7.252;2023-01-24T02:49:38;99631.78;;;0.46
64458;BMP280;58438;51.200;7.252;2023-01-24T02:52:26;99633.91;;;0.37
64458;BMP280;58438;51.200;7.252;2023-01-24T02:55:31;99630.16;;;0.42
64458;BMP280;58438;51.200;7.252;2023-01-24T02:58:19;99628.03;;;0.51
64458;BMP280;58438;51.200;7.252;2023-01-24T03:01:06;99627.75;;;0.56
64458;BMP280;58438;51.200;7.252;2023-01-24T03:03:55;99638.34;;;0.49
64458;BMP280;58438;51.200;7.252;2023-01-24T03:06:43;99630.56;;;0.63
64458;BMP280;58438;51.200;7.252;2023-01-24T03:09:30;99630.19;;;0.64
64458;BMP280;58438;51.200;7.252;2023-01-24T03:12:21;99626.03;;;0.67
64458;BMP280;58438;51.200;7.252;2023-01-24T03:18:32;99627.03;;;0.59
64458;BMP280;58438;51.200;7.252;2023-01-24T03:24:41;99628.88;;;0.55
64458;BMP280;58438;51.200;7.252;2023-01-24T03:27:46;99619.00;;;0.59
64458;BMP280;58438;51.200;7.252;2023-01-24T03:30:50;99624.53;;;0.47
64458;BMP280;58438;51.200;7.252;2023-01-24T03:33:57;99621.56;;;0.33
64458;BMP280;58438;51.200;7.252;2023-01-24T03:37:02;99609.19;;;0.25
64458;BMP280;58438;51.200;7.252;2023-01-24T03:39:50;99619.06;;;0.21
64458;BMP280;58438;51.200;7.252;2023-01-24T03:42:44;99623.88;;;0.31
64458;BMP280;58438;51.200;7.252;2023-01-24T03:45:37;99626.22;;;0.36
64458;BMP280;58438;51.200;7.252;2023-01-24T03:48:24;99625.59;;;0.42
64458;BMP280;58438;51.200;7.252;2023-01-24T03:51:21;99615.81;;;0.31
64458;BMP280;58438;51.200;7.252;2023-01-24T03:54:26;99627.75;;;0.37
64458;BMP280;58438;51.200;7.252;2023-01-24T03:57:14;99623.94;;;0.38
64458;BMP280;58438;51.200;7.252;2023-01-24T04:00:01;99630.75;;;0.32
64458;BMP280;58438;51.200;7.252;2023-01-24T04:02:49;99623.25;;;0.41
64458;BMP280;58438;51.200;7.252;2023-01-24T04:05:37;99632.25;;;0.29
64458;BMP280;58438;51.200;7.252;2023-01-24T04:08:26;99633.84;;;0.34
64458;BMP280;58438;51.200;7.252;2023-01-24T04:11:13;99639.88;;;0.27
64458;BMP280;58438;51.200;7.252;2023-01-24T04:14:01;99638.72;;;0.28
64458;BMP280;58438;51.200;7.252;2023-01-24T04:22:23;99613.16;;;0.31
64458;BMP280;58438;51.200;7.252;2023-01-24T04:25:12;99627.66;;;0.30
64458;BMP280;58438;51.200;7.252;2023-01-24T04:28:01;99624.94;;;0.49
64458;BMP280;58438;51.200;7.252;2023-01-24T04:30:48;99627.91;;;0.44
64458;BMP280;58438;51.200;7.252;2023-01-24T04:33:36;99624.13;;;0.26
64458;BMP280;58438;51.200;7.252;2023-01-24T04:36:24;99617.09;;;0.40
64458;BMP280;58438;51.200;7.252;2023-01-24T04:39:11;99624.06;;;0.45
64458;BMP280;58438;51.200;7.252;2023-01-24T04:42:00;99624.31;;;0.36
64458;BMP280;58438;51.200;7.252;2023-01-24T04:44:47;99627.00;;;0.36
64458;BMP280;58438;51.200;7.252;2023-01-24T04:47:35;99618.09;;;0.32
64458;BMP280;58438;51.200;7.252;2023-01-24T04:50:23;99627.09;;;0.21
64458;BMP280;58438;51.200;7.252;2023-01-24T04:53:10;99624.81;;;0.42
64458;BMP280;58438;51.200;7.252;2023-01-24T04:56:01;99624.72;;;0.57
64458;BMP280;58438;51.200;7.252;2023-01-24T04:58:50;99627.81;;;0.59
64458;BMP280;58438;51.200;7.252;2023-01-24T05:01:38;99630.84;;;0.58
64458;BMP280;58438;51.200;7.252;2023-01-24T05:04:25;99632.38;;;0.59
64458;BMP280;58438;51.200;7.252;2023-01-24T05:07:13;99632.63;;;0.50
64458;BMP280;58438;51.200;7.252;2023-01-24T05:12:47;99633.69;;;0.46
64458;BMP280;58438;51.200;7.252;2023-01-24T05:15:36;99632.31;;;0.55
64458;BMP280;58438;51.200;7.252;2023-01-24T05:18:24;99628.81;;;0.51
64458;BMP280;58438;51.200;7.252;2023-01-24T05:21:14;99634.38;;;0.43
64458;BMP280;58438;51.200;7.252;2023-01-24T05:24:02;99636.50;;;0.34
64458;BMP280;58438;51.200;7.252;2023-01-24T05:26:50;99637.78;;;0.40
64458;BMP280;58438;51.200;7.252;2023-01-24T05:29:38;99643.00;;;0.33
64458;BMP280;58438;51.200;7.252;2023-01-24T05:32:27;99652.25;;;0.16
64458;BMP280;58438;51.200;7.252;2023-01-24T05:35:15;99637.72;;;0.17
64458;BMP280;58438;51.200;7.252;2023-01-24T05:38:03;99642.03;;;0.22
64458;BMP280;58438;51.200;7.252;2023-01-24T05:40:50;99638.78;;;0.32
64458;BMP280;58438;51.200;7.252;2023-01-24T05:46:25;99663.38;;;0.37
64458;BMP280;58438;51.200;7.252;2023-01-24T05:49:15;99652.38;;;0.42
64458;BMP280;58438;51.200;7.252;2023-01-24T05:52:03;99653.72;;;0.14
64458;BMP280;58438;51.200;7.252;2023-01-24T05:54:51;99656.00;;;0.12
64458;BMP280;58438;51.200;7.252;2023-01-24T05:57:38;99657.59;;;-0.03
64458;BMP280;58438;51.200;7.252;2023-01-24T06:00:26;99655.56;;;0.10
64458;BMP280;58438;51.200;7.252;2023-01-24T06:03:14;99662.81;;;0.09
64458;BMP280;58438;51.200;7.252;2023-01-24T06:06:03;99662.97;;;0.16
64458;BMP280;58438;51.200;7.252;2023-01-24T06:08:51;99661.84;;;0.17
64458;BMP280;58438;51.200;7.252;2023-01-24T06:11:38;99664.09;;;0.15
64458;BMP280;58438;51.200;7.252;2023-01-24T06:14:26;99663.47;;;0.22
64458;BMP280;58438;51.200;7.252;2023-01-24T06:17:13;99675.78;;;0.26
64458;BMP280;58438;51.200;7.252;2023-01-24T06:20:01;99676.34;;;0.16
64458;BMP280;58438;51.200;7.252;2023-01-24T06:22:52;99673.53;;;0.09
64458;BMP280;58438;51.200;7.252;2023-01-24T06:25:40;99687.41;;;0.34
64458;BMP280;58438;51.200;7.252;2023-01-24T06:28:28;99687.75;;;0.32
64458;BMP280;58438;51.200;7.252;2023-01-24T06:31:26;99690.50;;;0.36
64458;BMP280;58438;51.200;7.252;2023-01-24T06:34:32;99695.09;;;0.16
64458;BMP280;58438;51.200;7.252;2023-01-24T06:37:29;99694.34;;;0.16
64458;BMP280;58438;51.200;7.252;2023-01-24T06:40:22;99696.63;;;-0.02
64458;BMP280;58438;51.200;7.252;2023-01-24T06:43:10;99701.31;;;0.20
64458;BMP280;58438;51.200;7.252;2023-01-24T06:45:58;99697.84;;;0.20
64458;BMP280;58438;51.200;7.252;2023-01-24T06:48:46;99698.78;;;0.27
64458;BMP280;58438;51.200;7.252;2023-01-24T06:51:34;99693.38;;;0.24
64458;BMP280;58438;51.200;7.252;2023-01-24T06:54:21;99699.00;;;0.19
64458;BMP280;58438;51.200;7.252;2023-01-24T06:59:57;99710.28;;;0.28
64458;BMP280;58438;51.200;7.252;2023-01-24T07:02:45;99706.59;;;0.36
64458;BMP280;58438;51.200;7.252;2023-01-24T07:05:33;99704.00;;;0.20
64458;BMP280;58438;51.200;7.252;2023-01-24T07:08:21;99714.78;;;0.24
64458;BMP280;58438;51.200;7.252;2023-01-24T07:11:08;99718.38;;;0.12
64458;BMP280;58438;51.200;7.252;2023-01-24T07:13:57;99722.31;;;0.18
64458;BMP280;58438;51.200;7.252;2023-01-24T07:16:45;99735.28;;;0.16
64458;BMP280;58438;51.200;7.252;2023-01-24T07:19:33;99727.53;;;0.11
64458;BMP280;58438;51.200;7.252;2023-01-24T07:22:21;99732.34;;;0.21
64458;BMP280;58438;51.200;7.252;2023-01-24T07:25:12;99749.81;;;0.15
64458;BMP280;58438;51.200;7.252;2023-01-24T07:28:01;99735.50;;;0.27
64458;BMP280;58438;51.200;7.252;2023-01-24T07:30:51;99745.50;;;0.11
64458;BMP280;58438;51.200;7.252;2023-01-24T07:33:39;99740.56;;;0.13
64458;BMP280;58438;51.200;7.252;2023-01-24T07:36:26;99741.13;;;0.22
64458;BMP280;58438;51.200;7.252;2023-01-24T07:39:14;99741.00;;;0.34
64458;BMP280;58438;51.200;7.252;2023-01-24T07:42:02;99743.06;;;0.21
64458;BMP280;58438;51.200;7.252;2023-01-24T07:44:50;99743.81;;;0.22
64458;BMP280;58438;51.200;7.252;2023-01-24T07:47:41;99757.63;;;-0.10
64458;BMP280;58438;51.200;7.252;2023-01-24T07:50:28;99744.22;;;0.05
64458;BMP280;58438;51.200;7.252;2023-01-24T07:53:17;99753.09;;;0.09
64458;BMP280;58438;51.200;7.252;2023-01-24T07:56:06;99753.78;;;0.06
64458;BMP280;58438;51.200;7.252;2023-01-24T07:58:59;99744.13;;;0.01
64458;BMP280;58438;51.200;7.252;2023-01-24T08:04:36;99757.94;;;0.03
64458;BMP280;58438;51.200;7.252;2023-01-24T08:07:23;99751.91;;;0.06
64458;BMP280;58438;51.200;7.252;2023-01-24T08:10:11;99749.88;;;0.19
64458;BMP280;58438;51.200;7.252;2023-01-24T08:12:59;99762.06;;;0.16
64458;BMP280;58438;51.200;7.252;2023-01-24T08:15:46;99759.72;;;0.15
64458;BMP280;58438;51.200;7.252;2023-01-24T08:18:34;99769.75;;;0.18
64458;BMP280;58438;51.200;7.252;2023-01-24T08:21:23;99762.63;;;0.25
64458;BMP280;58438;51.200;7.252;2023-01-24T08:24:10;99764.38;;;0.37
64458;BMP280;58438;51.200;7.252;2023-01-24T08:26:58;99770.78;;;0.48
64458;BMP280;58438;51.200;7.252;2023-01-24T08:29:45;99764.34;;;0.52
64458;BMP280;58438;51.200;7.252;2023-01-24T08:32:33;99773.97;;;0.38
64458;BMP280;58438;51.200;7.252;2023-01-24T08:35:21;99770.28;;;0.42
64458;BMP280;58438;51.200;7.252;2023-01-24T08:38:10;99764.38;;;0.37
64458;BMP280;58438;51.200;7.252;2023-01-24T08:43:44;99786.13;;;0.32
64458;BMP280;58438;51.200;7.252;2023-01-24T08:46:32;99778.28;;;0.23
64458;BMP280;58438;51.200;7.252;2023-01-24T08:49:19;99792.66;;;0.15
64458;BMP280;58438;51.200;7.252;2023-01-24T08:52:07;99784.00;;;0.22
64458;BMP280;58438;51.200;7.252;2023-01-24T08:54:56;99788.09;;;0.35
64458;BMP280;58438;51.200;7.252;2023-01-24T08:57:43;99787.81;;;0.40
64458;BMP280;58438;51.200;7.252;2023-01-24T09:00:31;99791.97;;;0.37
64458;BMP280;58438;51.200;7.252;2023-01-24T09:03:19;99794.91;;;0.32
64458;BMP280;58438;51.200;7.252;2023-01-24T09:06:07;99795.41;;;0.38
64458;BMP280;58438;51.200;7.252;2023-01-24T09:08:54;99790.75;;;0.35
64458;BMP280;58438;51.200;7.252;2023-01-24T09:11:43;99796.06;;;0.31
64458;BMP280;58438;51.200;7.252;2023-01-24T09:14:31;99792.03;;;0.22
64458;BMP280;58438;51.200;7.252;2023-01-24T09:17:18;99806.91;;;0.38
64458;BMP280;58438;51.200;7.252;2023-01-24T09:20:08;99808.78;;;0.53
64458;BMP280;58438;51.200;7.252;2023-01-24T09:22:55;99801.53;;;0.54
64458;BMP280;58438;51.200;7.252;2023-01-24T09:25:50;99809.69;;;0.42
64458;BMP280;58438;51.200;7.252;2023-01-24T09:31:26;99805.25;;;0.49
64458;BMP280;58438;51.200;7.252;2023-01-24T09:34:14;99814.06;;;0.50
64458;BMP280;58438;51.200;7.252;2023-01-24T09:37:01;99810.56;;;0.65
64458;BMP280;58438;51.200;7.252;2023-01-24T09:39:49;99812.03;;;0.62
64458;BMP280;58438;51.200;7.252;2023-01-24T09:42:39;99811.84;;;0.71
64458;BMP280;58438;51.200;7.252;2023-01-24T09:45:31;99809.59;;;0.73
64458;BMP280;58438;51.200;7.252;2023-01-24T09:48:20;99817.44;;;0.81
64458;BMP280;58438;51.200;7.252;2023-01-24T09:51:13;99820.38;;;0.76
64458;BMP280;58438;51.200;7.252;2023-01-24T09:54:04;99815.91;;;0.65
64458;BMP280;58438;51.200;7.252;2023-01-24T09:56:53;99828.28;;;0.69
64458;BMP280;58438;51.200;7.252;2023-01-24T09:59:46;99827.44;;;0.65
64458;BMP280;58438;51.200;7.252;2023-01-24T10:02:40;99826.81;;;0.72
64458;BMP280;58438;51.200;7.252;2023-01-24T10:05:34;99807.69;;;0.73
64458;BMP280;58438;51.200;7.252;2023-01-24T10:08:27;99839.25;;;0.64
64458;BMP280;58438;51.200;7.252;2023-01-24T10:11:23;99840.13;;;0.68
64458;BMP280;58438;51.200;7.252;2023-01-24T10:14:23;99839.78;;;0.70
64458;BMP280;58438;51.200;7.252;2023-01-24T10:17:31;99837.22;;;0.58
64458;BMP280;58438;51.200;7.252;2023-01-24T10:20:32;99834.06;;;0.71
64458;BMP280;58438;51.200;7.252;2023-01-24T10:23:25;99827.47;;;0.50
64458;BMP280;58438;51.200;7.252;2023-01-24T10:29:11;99820.63;;;0.52
64458;BMP280;58438;51.200;7.252;2023-01-24T10:32:02;99825.34;;;0.59
64458;BMP280;58438;51.200;7.252;2023-01-24T10:34:54;99825.03;;;0.60
64458;BMP280;58438;51.200;7.252;2023-01-24T10:37:48;99824.16;;;0.56
64458;BMP280;58438;51.200;7.252;2023-01-24T10:40:49;99825.72;;;0.57
64458;BMP280;58438;51.200;7.252;2023-01-24T10:43:37;99822.06;;;0.65
64458;BMP280;58438;51.200;7.252;2023-01-24T10:46:44;99817.06;;;0.83
64458;BMP280;58438;51.200;7.252;2023-01-24T10:49:35;99810.78;;;0.94
64458;BMP280;58438;51.200;7.252;2023-01-24T10:52:23;99806.50;;;1.09
64458;BMP280;58438;51.200;7.252;2023-01-24T10:58:21;99814.19;;;0.91
64458;BMP280;58438;51.200;7.252;2023-01-24T11:01:17;99804.94;;;0.89
64458;BMP280;58438;51.200;7.252;2023-01-24T11:04:14;99808.81;;;0.91
64458;BMP280;58438;51.200;7.252;2023-01-24T11:07:04;99808.31;;;1.05
64458;BMP280;58438;51.200;7.252;2023-01-24T11:09:52;99800.06;;;0.94
64458;BMP280;58438;51.200;7.252;2023-01-24T11:12:49;99795.34;;;1.07
64458;BMP280;58438;51.200;7.252;2023-01-24T11:15:38;99801.81;;;1.06
64458;BMP280;58438;51.200;7.252;2023-01-24T11:18:26;99797.53;;;0.82
64458;BMP280;58438;51.200;7.252;2023-01-24T11:21:16;99803.94;;;0.78
64458;BMP280;58438;51.200;7.252;2023-01-24T11:27:04;99791.66;;;0.96
64458;BMP280;58438;51.200;7.252;2023-01-24T11:35:46;99799.97;;;0.91
64458;BMP280;58438;51.200;7.252;2023-01-24T11:38:36;99794.56;;;1.06
64458;BMP280;58438;51.200;7.252;2023-01-24T11:41:31;99780.44;;;1.09
64458;BMP280;58438;51.200;7.252;2023-01-24T11:44:39;99785.44;;;1.11
64458;BMP280;58438;51.200;7.252;2023-01-24T11:47:36;99787.78;;;1.12
64458;BMP280;58438;51.200;7.252;2023-01-24T11:50:32;99789.97;;;1.07
64458;BMP280;58438;51.200;7.252;2023-01-24T11:53:33;99782.63;;;1.04
64458;BMP280;58438;51.200;7.252;2023-01-24T11:56:29;99781.22;;;1.10
64458;BMP280;58438;51.200;7.252;2023-01-24T11:59:27;99780.09;;;1.11
64458;BMP280;58438;51.200;7.252;2023-01-24T12:05:27;99766.28;;;1.31
64458;BMP280;58438;51.200;7.252;2023-01-24T12:08:31;99767.41;;;1.30
64458;BMP280;58438;51.200;7.252;2023-01-24T12:11:26;99769.00;;;1.35
64458;BMP280;58438;51.200;7.252;2023-01-24T12:17:28;99753.09;;;1.23
64458;BMP280;58438;51.200;7.252;2023-01-24T12:20:26;99755.91;;;1.30
64458;BMP280;58438;51.200;7.252;2023-01-24T12:23:20;99749.28;;;1.24
64458;BMP280;58438;51.200;7.252;2023-01-24T12:31:52;99729.72;;;1.23
64458;BMP280;58438;51.200;7.252;2023-01-24T12:34:44;99725.66;;;1.33
64458;BMP280;58438;51.200;7.252;2023-01-24T12:37:41;99724.09;;;1.32
64458;BMP280;58438;51.200;7.252;2023-01-24T12:40:38;99724.56;;;1.37
64458;BMP280;58438;51.200;7.252;2023-01-24T12:46:25;99731.41;;;1.35
64458;BMP280;58438;51.200;7.252;2023-01-24T12:49:23;99722.97;;;1.33
64458;BMP280;58438;51.200;7.252;2023-01-24T12:52:32;99722.00;;;1.22
64458;BMP280;58438;51.200;7.252;2023-01-24T12:55:25;99723.44;;;1.38
64458;BMP280;58438;51.200;7.252;2023-01-24T12:58:16;99715.38;;;1.38
64458;BMP280;58438;51.200;7.252;2023-01-24T13:01:24;99708.47;;;1.37
64458;BMP280;58438;51.200;7.252;2023-01-24T13:04:22;99712.28;;;1.36
64458;BMP280;58438;51.200;7.252;2023-01-24T13:07:25;99710.19;;;1.49
64458;BMP280;58438;51.200;7.252;2023-01-24T13:10:21;99711.06;;;1.30
64458;BMP280;58438;51.200;7.252;2023-01-24T13:13:18;99723.47;;;1.16
64458;BMP280;58438;51.200;7.252;2023-01-24T13:16:28;99711.72;;;1.24
64458;BMP280;58438;51.200;7.252;2023-01-24T13:19:30;99705.69;;;1.30
64458;BMP280;58438;51.200;7.252;2023-01-24T13:22:34;99706.25;;;1.43
64458;BMP280;58438;51.200;7.252;2023-01-24T13:25:37;99698.72;;;1.52
64458;BMP280;58438;51.200;7.252;2023-01-24T13:28:33;99709.78;;;1.47
64458;BMP280;58438;51.200;7.252;2023-01-24T13:31:28;99710.06;;;1.42
64458;BMP280;58438;51.200;7.252;2023-01-24T13:34:19;99713.00;;;1.33
64458;BMP280;58438;51.200;7.252;2023-01-24T13:37:16;99709.34;;;1.45
64458;BMP280;58438;51.200;7.252;2023-01-24T13:40:06;99723.91;;;1.44
64458;BMP280;58438;51.200;7.252;2023-01-24T13:47:01;99718.94;;;1.20
64458;BMP280;58438;51.200;7.252;2023-01-24T13:50:10;99714.47;;;1.27
64458;BMP280;58438;51.200;7.252;2023-01-24T13:56:01;99712.59;;;1.31
64458;BMP280;58438;51.200;7.252;2023-01-24T14:01:44;99704.03;;;1.22
64458;BMP280;58438;51.200;7.252;2023-01-24T14:04:39;99713.53;;;1.42
64458;BMP280;58438;51.200;7.252;2023-01-24T14:07:28;99712.81;;;1.45
64458;BMP280;58438;51.200;7.252;2023-01-24T14:10:17;99715.28;;;1.31
64458;BMP280;58438;51.200;7.252;2023-01-24T14:13:05;99720.53;;;1.24
64458;BMP280;58438;51.200;7.252;2023-01-24T14:15:52;99715.31;;;1.35
64458;BMP280;58438;51.200;7.252;2023-01-24T14:18:42;99708.94;;;1.43
64458;BMP280;58438;51.200;7.252;2023-01-24T14:21:45;99709.34;;;1.45
64458;BMP280;58438;51.200;7.252;2023-01-24T14:24:36;99717.66;;;1.36
64458;BMP280;58438;51.200;7.252;2023-01-24T14:27:27;99713.78;;;1.34
64458;BMP280;58438;51.200;7.252;2023-01-24T14:30:27;99720.78;;;1.16
64458;BMP280;58438;51.200;7.252;2023-01-24T14:36:19;99725.19;;;1.27
64458;BMP280;58438;51.200;7.252;2023-01-24T14:39:19;99720.53;;;1.02
64458;BMP280;58438;51.200;7.252;2023-01-24T14:42:12;99729.16;;;0.92
64458;BMP280;58438;51.200;7.252;2023-01-24T14:45:00;99715.63;;;1.07
64458;BMP280;58438;51.200;7.252;2023-01-24T14:47:49;99728.97;;;1.04
64458;BMP280;58438;51.200;7.252;2023-01-24T14:50:38;99725.72;;;1.14
64458;BMP280;58438;51.200;7.252;2023-01-24T14:53:27;99737.00;;;0.81
64458;BMP280;58438;51.200;7.252;2023-01-24T14:56:16;99730.78;;;0.96
64458;BMP280;58438;51.200;7.252;2023-01-24T14:59:10;99724.41;;;1.04
64458;BMP280;58438;51.200;7.252;2023-01-24T15:01:58;99729.91;;;0.92
64458;BMP280;58438;51.200;7.252;2023-01-24T15:04:46;99736.69;;;0.86
64458;BMP280;58438;51.200;7.252;2023-01-24T15:07:33;99718.84;;;0.94
64458;BMP280;58438;51.200;7.252;2023-01-24T15:10:22;99729.09;;;0.88
64458;BMP280;58438;51.200;7.252;2023-01-24T15:13:20;99734.34;;;1.04
64458;BMP280;58438;51.200;7.252;2023-01-24T15:16:16;99755.31;;;0.98
64458;BMP280;58438;51.200;7.252;2023-01-24T15:19:09;99744.31;;;0.84
64458;BMP280;58438;51.200;7.252;2023-01-24T15:21:58;99752.56;;;0.95
64458;BMP280;58438;51.200;7.252;2023-01-24T15:24:49;99744.94;;;1.16
64458;BMP280;58438;51.200;7.252;2023-01-24T15:27:41;99736.88;;;1.16
64458;BMP280;58438;51.200;7.252;2023-01-24T15:30:30;99733.59;;;1.03
64458;BMP280;58438;51.200;7.252;2023-01-24T15:33:17;99735.63;;;1.10
64458;BMP280;58438;51.200;7.252;2023-01-24T15:36:20;99746.78;;;0.93
64458;BMP280;58438;51.200;7.252;2023-01-24T15:39:12;99746.03;;;0.73
64458;BMP280;58438;51.200;7.252;2023-01-24T15:42:05;99754.47;;;0.56
64458;BMP280;58438;51.200;7.252;2023-01-24T15:45:15;99755.41;;;0.64
64458;BMP280;58438;51.200;7.252;2023-01-24T15:48:13;99750.19;;;0.71
64458;BMP280;58438;51.200;7.252;2023-01-24T15:50:59;99749.81;;;0.91
64458;BMP280;58438;51.200;7.252;2023-01-24T15:56:43;99739.03;;;0.88
64458;BMP280;58438;51.200;7.252;2023-01-24T15:59:47;99737.69;;;0.97
64458;BMP280;58438;51.200;7.252;2023-01-24T16:02:35;99732.97;;;0.72
64458;BMP280;58438;51.200;7.252;2023-01-24T16:05:27;99743.13;;;0.63
64458;BMP280;58438;51.200;7.252;2023-01-24T16:08:15;99736.63;;;0.83
64458;BMP280;58438;51.200;7.252;2023-01-24T16:11:04;99742.56;;;0.73
64458;BMP280;58438;51.200;7.252;2023-01-24T16:13:51;99733.94;;;0.83
64458;BMP280;58438;51.200;7.252;2023-01-24T16:16:41;99735.75;;;0.98
64458;BMP280;58438;51.200;7.252;2023-01-24T16:19:29;99748.63;;;0.89
64458;BMP280;58438;51.200;7.252;2023-01-24T16:22:18;99737.34;;;0.80
64458;BMP280;58438;51.200;7.252;2023-01-24T16:25:10;99740.00;;;0.61
64458;BMP280;58438;51.200;7.252;2023-01-24T16:27:57;99736.31;;;0.65
64458;BMP280;58438;51.200;7.252;2023-01-24T16:30:45;99740.53;;;0.66
64458;BMP280;58438;51.200;7.252;2023-01-24T16:33:34;99730.94;;;0.65
64458;BMP280;58438;51.200;7.252;2023-01-24T16:36:22;99735.59;;;0.68
64458;BMP280;58438;51.200;7.252;2023-01-24T16:39:14;99732.94;;;0.53
64458;BMP280;58438;51.200;7.252;2023-01-24T16:42:03;99728.34;;;0.69
64458;BMP280;58438;51.200;7.252;2023-01-24T16:44:54;99728.97;;;0.43
64458;BMP280;58438;51.200;7.252;2023-01-24T16:47:41;99727.31;;;0.58
64458;BMP280;58438;51.200;7.252;2023-01-24T16:50:29;99730.66;;;0.51
64458;BMP280;58438;51.200;7.252;2023-01-24T16:53:18;99722.59;;;0.32
64458;BMP280;58438;51.200;7.252;2023-01-24T16:56:07;99724.72;;;0.42
64458;BMP280;58438;51.200;7.252;2023-01-24T16:58:55;99728.44;;;0.38
64458;BMP280;58438;51.200;7.252;2023-01-24T17:04:36;99740.72;;;0.58
64458;BMP280;58438;51.200;7.252;2023-01-24T17:10:10;99741.00;;;0.53
64458;BMP280;58438;51.200;7.252;2023-01-24T17:12:59;99745.53;;;0.49
64458;BMP280;58438;51.200;7.252;2023-01-24T17:15:47;99747.34;;;0.45
64458;BMP280;58438;51.200;7.252;2023-01-24T17:18:35;99744.50;;;0.38
64458;BMP280;58438;51.200;7.252;2023-01-24T17:21:23;99742.88;;;0.33
64458;BMP280;58438;51.200;7.252;2023-01-24T17:24:10;99735.72;;;0.37
64458;BMP280;58438;51.200;7.252;2023-01-24T17:26:58;99737.97;;;0.35
64458;BMP280;58438;51.200;7.252;2023-01-24T17:29:46;99747.47;;;0.14
64458;BMP280;58438;51.200;7.252;2023-01-24T17:32:34;99738.72;;;0.36
64458;BMP280;58438;51.200;7.252;2023-01-24T17:38:11;99735.78;;;0.41
64458;BMP280;58438;51.200;7.252;2023-01-24T17:40:59;99735.28;;;0.16
64458;BMP280;58438;51.200;7.252;2023-01-24T17:46:39;99743.09;;;0.44
64458;BMP280;58438;51.200;7.252;2023-01-24T17:49:28;99732.53;;;0.51
64458;BMP280;58438;51.200;7.252;2023-01-24T17:52:15;99736.00;;;0.51
64458;BMP280;58438;51.200;7.252;2023-01-24T17:55:08;99730.28;;;0.53
64458;BMP280;58438;51.200;7.252;2023-01-24T17:57:56;99737.78;;;0.63
64458;BMP280;58438;51.200;7.252;2023-01-24T18:00:45;99745.50;;;0.68
64458;BMP280;58438;51.200;7.252;2023-01-24T18:06:21;99728.72;;;0.33
64458;BMP280;58438;51.200;7.252;2023-01-24T18:09:09;99735.06;;;0.44
64458;BMP280;58438;51.200;7.252;2023-01-24T18:11:56;99736.50;;;0.57
64458;BMP280;58438;51.200;7.252;2023-01-24T18:17:33;99743.56;;;0.46
64458;BMP280;58438;51.200;7.252;2023-01-24T18:20:22;99755.09;;;0.50